Alapaha, Georgia
Current Conditions -  °F | °C
As of 9:35 AM on Thursday 25 Dec 2014 (Local Time) from KTMA Reporting Station
Clear Clear  
Wind Chill:   Ceiling: Unl
Heat Index:   Visibility: 10mi
Dew Point:   Wind: 9mph
Humidity: 72%   Direction: 310°NW
Pressure: 30.21"   Gusts: NA
Location:  31.39°N, 83.22°W
Report Text: KTMA 251435Z AUTO 31008KT 10SM CLR 09/04 A3021 RMK AO2 T00870040
Loading
Personal Weather Stations






























Interactive Weather Map New forecast layout! Learn more

10-Day Weather Forecast

Advertisements
Track Severe Weather on mobile